sensor_id;sensor_type;location;lat;lon;timestamp;temperature;humidity
46416;DHT22;32620;51.704;7.822;2022-10-12T00:00:04;3.80;99.90
46416;DHT22;32620;51.704;7.822;2022-10-12T00:02:30;3.80;99.90
46416;DHT22;32620;51.704;7.822;2022-10-12T00:04:55;3.80;99.90
46416;DHT22;32620;51.704;7.822;2022-10-12T00:07:21;3.80;99.90
46416;DHT22;32620;51.704;7.822;2022-10-12T00:09:46;3.70;99.90
46416;DHT22;32620;51.704;7.822;2022-10-12T00:12:12;3.70;99.90
46416;DHT22;32620;51.704;7.822;2022-10-12T00:14:37;3.60;99.90
46416;DHT22;32620;51.704;7.822;2022-10-12T00:17:03;3.60;99.90
46416;DHT22;32620;51.704;7.822;2022-10-12T00:19:28;3.60;99.90
46416;DHT22;32620;51.704;7.822;2022-10-12T00:21:54;3.50;99.90
46416;DHT22;32620;51.704;7.822;2022-10-12T00:24:19;3.50;99.90
46416;DHT22;32620;51.704;7.822;2022-10-12T00:26:45;3.50;99.90
46416;DHT22;32620;51.704;7.822;2022-10-12T00:29:10;3.50;99.90
46416;DHT22;32620;51.704;7.822;2022-10-12T00:31:36;3.50;99.90
46416;DHT22;32620;51.704;7.822;2022-10-12T00:34:02;3.60;99.90
46416;DHT22;32620;51.704;7.822;2022-10-12T00:36:29;3.50;99.90
46416;DHT22;32620;51.704;7.822;2022-10-12T00:38:55;3.50;99.90
46416;DHT22;32620;51.704;7.822;2022-10-12T00:41:22;3.50;99.90
46416;DHT22;32620;51.704;7.822;2022-10-12T00:43:48;3.50;99.90
46416;DHT22;32620;51.704;7.822;2022-10-12T00:46:17;3.50;99.90
46416;DHT22;32620;51.704;7.822;2022-10-12T00:48:43;3.50;99.90
46416;DHT22;32620;51.704;7.822;2022-10-12T00:51:09;3.50;99.90
46416;DHT22;32620;51.704;7.822;2022-10-12T00:53:36;3.50;99.90
46416;DHT22;32620;51.704;7.822;2022-10-12T00:56:06;3.40;99.90
46416;DHT22;32620;51.704;7.822;2022-10-12T00:58:34;3.40;99.90
46416;DHT22;32620;51.704;7.822;2022-10-12T01:01:00;3.40;99.90
46416;DHT22;32620;51.704;7.822;2022-10-12T01:03:26;3.40;99.90
46416;DHT22;32620;51.704;7.822;2022-10-12T01:05:52;3.30;99.90
46416;DHT22;32620;51.704;7.822;2022-10-12T01:08:18;3.30;99.90
46416;DHT22;32620;51.704;7.822;2022-10-12T01:10:43;3.30;99.90
46416;DHT22;32620;51.704;7.822;2022-10-12T01:13:09;3.30;99.90
46416;DHT22;32620;51.704;7.822;2022-10-12T01:15:35;3.30;99.90
46416;DHT22;32620;51.704;7.822;2022-10-12T01:18:06;3.30;99.90
46416;DHT22;32620;51.704;7.822;2022-10-12T01:20:36;3.40;99.90
46416;DHT22;32620;51.704;7.822;2022-10-12T01:23:18;3.40;99.90
46416;DHT22;32620;51.704;7.822;2022-10-12T01:26:26;3.40;99.90
46416;DHT22;32620;51.704;7.822;2022-10-12T01:31:24;3.40;99.90
46416;DHT22;32620;51.704;7.822;2022-10-12T01:33:56;3.30;99.90
46416;DHT22;32620;51.704;7.822;2022-10-12T01:36:32;3.30;99.90
46416;DHT22;32620;51.704;7.822;2022-10-12T01:39:03;3.30;99.90
46416;DHT22;32620;51.704;7.822;2022-10-12T01:41:33;3.30;99.90
46416;DHT22;32620;51.704;7.822;2022-10-12T01:44:00;3.30;99.90
46416;DHT22;32620;51.704;7.822;2022-10-12T01:49:04;3.20;99.90
46416;DHT22;32620;51.704;7.822;2022-10-12T01:52:05;3.20;99.90
46416;DHT22;32620;51.704;7.822;2022-10-12T01:57:03;3.30;99.90
46416;DHT22;32620;51.704;7.822;2022-10-12T01:59:33;3.30;99.90
46416;DHT22;32620;51.704;7.822;2022-10-12T02:02:18;3.30;99.90
46416;DHT22;32620;51.704;7.822;2022-10-12T02:04:51;3.30;99.90
46416;DHT22;32620;51.704;7.822;2022-10-12T02:07:24;3.20;99.90
46416;DHT22;32620;51.704;7.822;2022-10-12T02:09:51;3.20;99.90
46416;DHT22;32620;51.704;7.822;2022-10-12T02:12:19;3.20;99.90
46416;DHT22;32620;51.704;7.822;2022-10-12T02:14:47;3.20;99.90
46416;DHT22;32620;51.704;7.822;2022-10-12T02:17:16;3.20;99.90
46416;DHT22;32620;51.704;7.822;2022-10-12T02:19:43;3.20;99.90
46416;DHT22;32620;51.704;7.822;2022-10-12T02:22:11;3.20;99.90
46416;DHT22;32620;51.704;7.822;2022-10-12T02:24:38;3.20;99.90
46416;DHT22;32620;51.704;7.822;2022-10-12T02:27:05;3.10;99.90
46416;DHT22;32620;51.704;7.822;2022-10-12T02:29:35;3.10;99.90
46416;DHT22;32620;51.704;7.822;2022-10-12T02:32:03;3.10;99.90
46416;DHT22;32620;51.704;7.822;2022-10-12T02:34:32;3.10;99.90
46416;DHT22;32620;51.704;7.822;2022-10-12T02:37:03;3.10;99.90
46416;DHT22;32620;51.704;7.822;2022-10-12T02:39:32;3.10;99.90
46416;DHT22;32620;51.704;7.822;2022-10-12T02:42:00;3.10;99.90
46416;DHT22;32620;51.704;7.822;2022-10-12T02:44:30;3.00;99.90
46416;DHT22;32620;51.704;7.822;2022-10-12T02:46:56;3.00;99.90
46416;DHT22;32620;51.704;7.822;2022-10-12T02:49:24;3.00;99.90
46416;DHT22;32620;51.704;7.822;2022-10-12T02:51:50;3.00;99.90
46416;DHT22;32620;51.704;7.822;2022-10-12T02:54:16;2.90;99.90
46416;DHT22;32620;51.704;7.822;2022-10-12T02:56:42;2.90;99.90
46416;DHT22;32620;51.704;7.822;2022-10-12T02:59:09;2.90;99.90
46416;DHT22;32620;51.704;7.822;2022-10-12T03:01:34;2.90;99.90
46416;DHT22;32620;51.704;7.822;2022-10-12T03:03:59;2.90;99.90
46416;DHT22;32620;51.704;7.822;2022-10-12T03:06:25;2.90;99.90
46416;DHT22;32620;51.704;7.822;2022-10-12T03:08:51;2.90;99.90
46416;DHT22;32620;51.704;7.822;2022-10-12T03:11:17;2.90;99.90
46416;DHT22;32620;51.704;7.822;2022-10-12T03:13:42;2.90;99.90
46416;DHT22;32620;51.704;7.822;2022-10-12T03:16:09;2.90;99.90
46416;DHT22;32620;51.704;7.822;2022-10-12T03:18:34;2.90;99.90
46416;DHT22;32620;51.704;7.822;2022-10-12T03:21:00;2.90;99.90
46416;DHT22;32620;51.704;7.822;2022-10-12T03:23:26;2.80;99.90
46416;DHT22;32620;51.704;7.822;2022-10-12T03:25:54;2.80;99.90
46416;DHT22;32620;51.704;7.822;2022-10-12T03:28:20;2.80;99.90
46416;DHT22;32620;51.704;7.822;2022-10-12T03:30:45;2.70;99.90
46416;DHT22;32620;51.704;7.822;2022-10-12T03:33:11;2.70;99.90
46416;DHT22;32620;51.704;7.822;2022-10-12T03:35:36;2.70;99.90
46416;DHT22;32620;51.704;7.822;2022-10-12T03:38:02;2.70;99.90
46416;DHT22;32620;51.704;7.822;2022-10-12T03:40:27;2.70;99.90
46416;DHT22;32620;51.704;7.822;2022-10-12T03:42:53;2.70;99.90
46416;DHT22;32620;51.704;7.822;2022-10-12T03:45:18;2.70;99.90
46416;DHT22;32620;51.704;7.822;2022-10-12T03:47:44;2.80;99.90
46416;DHT22;32620;51.704;7.822;2022-10-12T03:50:09;2.80;99.90
46416;DHT22;32620;51.704;7.822;2022-10-12T03:52:35;2.90;99.90
46416;DHT22;32620;51.704;7.822;2022-10-12T03:55:00;2.90;99.90
46416;DHT22;32620;51.704;7.822;2022-10-12T03:57:26;2.90;99.90
46416;DHT22;32620;51.704;7.822;2022-10-12T03:59:51;2.80;99.90
46416;DHT22;32620;51.704;7.822;2022-10-12T04:02:17;2.80;99.90
46416;DHT22;32620;51.704;7.822;2022-10-12T04:04:42;2.80;99.90
46416;DHT22;32620;51.704;7.822;2022-10-12T04:07:08;2.80;99.90
46416;DHT22;32620;51.704;7.822;2022-10-12T04:09:33;2.70;99.90
46416;DHT22;32620;51.704;7.822;2022-10-12T04:11:59;2.70;99.90
46416;DHT22;32620;51.704;7.822;2022-10-12T04:14:24;2.70;99.90
46416;DHT22;32620;51.704;7.822;2022-10-12T04:16:52;2.70;99.90
46416;DHT22;32620;51.704;7.822;2022-10-12T04:19:17;2.70;99.90
46416;DHT22;32620;51.704;7.822;2022-10-12T04:21:43;2.60;99.90
46416;DHT22;32620;51.704;7.822;2022-10-12T04:24:08;2.60;99.90
46416;DHT22;32620;51.704;7.822;2022-10-12T04:26:34;2.60;99.90
46416;DHT22;32620;51.704;7.822;2022-10-12T04:28:59;2.60;99.90
46416;DHT22;32620;51.704;7.822;2022-10-12T04:31:25;2.60;99.90
46416;DHT22;32620;51.704;7.822;2022-10-12T04:33:52;2.60;99.90
46416;DHT22;32620;51.704;7.822;2022-10-12T04:36:21;2.60;99.90
46416;DHT22;32620;51.704;7.822;2022-10-12T04:38:47;2.60;99.90
46416;DHT22;32620;51.704;7.822;2022-10-12T04:41:12;2.60;99.90
46416;DHT22;32620;51.704;7.822;2022-10-12T04:43:38;2.60;99.90
46416;DHT22;32620;51.704;7.822;2022-10-12T04:46:03;2.60;99.90
46416;DHT22;32620;51.704;7.822;2022-10-12T04:48:29;2.70;99.90
46416;DHT22;32620;51.704;7.822;2022-10-12T04:50:54;2.70;99.90
46416;DHT22;32620;51.704;7.822;2022-10-12T04:53:20;2.80;99.90
46416;DHT22;32620;51.704;7.822;2022-10-12T04:55:45;2.70;99.90
46416;DHT22;32620;51.704;7.822;2022-10-12T04:58:11;2.80;99.90
46416;DHT22;32620;51.704;7.822;2022-10-12T05:00:36;2.80;99.90
46416;DHT22;32620;51.704;7.822;2022-10-12T05:03:03;2.80;99.90
46416;DHT22;32620;51.704;7.822;2022-10-12T05:05:28;2.80;99.90
46416;DHT22;32620;51.704;7.822;2022-10-12T05:07:54;2.90;99.90
46416;DHT22;32620;51.704;7.822;2022-10-12T05:10:19;2.90;99.90
46416;DHT22;32620;51.704;7.822;2022-10-12T05:12:45;2.90;99.90
46416;DHT22;32620;51.704;7.822;2022-10-12T05:15:10;2.90;99.90
46416;DHT22;32620;51.704;7.822;2022-10-12T05:17:36;2.80;99.90
46416;DHT22;32620;51.704;7.822;2022-10-12T05:20:02;2.90;99.90
46416;DHT22;32620;51.704;7.822;2022-10-12T05:22:27;2.90;99.90
46416;DHT22;32620;51.704;7.822;2022-10-12T05:24:53;2.90;99.90
46416;DHT22;32620;51.704;7.822;2022-10-12T05:27:18;2.90;99.90
46416;DHT22;32620;51.704;7.822;2022-10-12T05:29:43;2.90;99.90
46416;DHT22;32620;51.704;7.822;2022-10-12T05:32:09;3.00;99.90
46416;DHT22;32620;51.704;7.822;2022-10-12T05:34:34;3.00;99.90
46416;DHT22;32620;51.704;7.822;2022-10-12T05:37:00;3.00;99.90
46416;DHT22;32620;51.704;7.822;2022-10-12T05:39:25;3.00;99.90
46416;DHT22;32620;51.704;7.822;2022-10-12T05:41:51;3.10;99.90
46416;DHT22;32620;51.704;7.822;2022-10-12T05:44:18;3.10;99.90
46416;DHT22;32620;51.704;7.822;2022-10-12T05:46:44;3.10;99.90
46416;DHT22;32620;51.704;7.822;2022-10-12T05:49:10;3.10;99.90
46416;DHT22;32620;51.704;7.822;2022-10-12T05:51:35;3.10;99.90
46416;DHT22;32620;51.704;7.822;2022-10-12T05:54:03;3.10;99.90
46416;DHT22;32620;51.704;7.822;2022-10-12T05:56:28;3.10;99.90
46416;DHT22;32620;51.704;7.822;2022-10-12T05:58:54;3.10;99.90
46416;DHT22;32620;51.704;7.822;2022-10-12T06:01:19;3.10;99.90
46416;DHT22;32620;51.704;7.822;2022-10-12T06:03:45;3.10;99.90
46416;DHT22;32620;51.704;7.822;2022-10-12T06:06:10;3.10;99.90
46416;DHT22;32620;51.704;7.822;2022-10-12T06:08:36;3.20;99.90
46416;DHT22;32620;51.704;7.822;2022-10-12T06:11:01;3.20;99.90
46416;DHT22;32620;51.704;7.822;2022-10-12T06:13:27;3.40;99.90
46416;DHT22;32620;51.704;7.822;2022-10-12T06:15:52;3.50;99.90
46416;DHT22;32620;51.704;7.822;2022-10-12T06:18:18;3.50;99.90
46416;DHT22;32620;51.704;7.822;2022-10-12T06:20:45;3.60;99.90
46416;DHT22;32620;51.704;7.822;2022-10-12T06:23:11;3.60;99.90
46416;DHT22;32620;51.704;7.822;2022-10-12T06:25:36;3.80;99.90
46416;DHT22;32620;51.704;7.822;2022-10-12T06:28:02;4.10;99.90
46416;DHT22;32620;51.704;7.822;2022-10-12T06:30:27;4.20;99.90
46416;DHT22;32620;51.704;7.822;2022-10-12T06:32:53;4.30;99.90
46416;DHT22;32620;51.704;7.822;2022-10-12T06:35:18;4.30;99.90
46416;DHT22;32620;51.704;7.822;2022-10-12T06:37:48;4.30;99.90
46416;DHT22;32620;51.704;7.822;2022-10-12T06:40:14;4.40;99.90
46416;DHT22;32620;51.704;7.822;2022-10-12T06:42:40;4.40;99.90
46416;DHT22;32620;51.704;7.822;2022-10-12T06:45:05;4.90;99.90
46416;DHT22;32620;51.704;7.822;2022-10-12T06:47:31;5.90;99.90
46416;DHT22;32620;51.704;7.822;2022-10-12T06:49:56;6.80;99.90
46416;DHT22;32620;51.704;7.822;2022-10-12T06:52:22;7.90;99.90
46416;DHT22;32620;51.704;7.822;2022-10-12T06:54:47;8.80;99.90
46416;DHT22;32620;51.704;7.822;2022-10-12T06:57:13;8.80;99.90
46416;DHT22;32620;51.704;7.822;2022-10-12T06:59:38;9.40;99.90
46416;DHT22;32620;51.704;7.822;2022-10-12T07:02:04;10.30;99.90
46416;DHT22;32620;51.704;7.822;2022-10-12T07:04:30;11.00;99.90
46416;DHT22;32620;51.704;7.822;2022-10-12T07:06:55;12.00;99.90
46416;DHT22;32620;51.704;7.822;2022-10-12T07:09:21;13.00;99.90
46416;DHT22;32620;51.704;7.822;2022-10-12T07:11:46;13.40;99.90
46416;DHT22;32620;51.704;7.822;2022-10-12T07:14:12;13.80;99.90
46416;DHT22;32620;51.704;7.822;2022-10-12T07:16:37;13.40;99.90
46416;DHT22;32620;51.704;7.822;2022-10-12T07:19:03;13.50;99.90
46416;DHT22;32620;51.704;7.822;2022-10-12T07:21:28;13.60;99.90
46416;DHT22;32620;51.704;7.822;2022-10-12T07:23:54;14.60;99.90
46416;DHT22;32620;51.704;7.822;2022-10-12T07:26:19;13.90;99.90
46416;DHT22;32620;51.704;7.822;2022-10-12T07:28:44;13.90;99.90
46416;DHT22;32620;51.704;7.822;2022-10-12T07:31:11;14.10;99.90
46416;DHT22;32620;51.704;7.822;2022-10-12T07:33:37;15.00;99.90
46416;DHT22;32620;51.704;7.822;2022-10-12T07:36:03;15.60;99.90
46416;DHT22;32620;51.704;7.822;2022-10-12T07:38:29;15.60;99.90
46416;DHT22;32620;51.704;7.822;2022-10-12T07:40:57;16.30;99.90
46416;DHT22;32620;51.704;7.822;2022-10-12T07:43:23;17.10;99.90
46416;DHT22;32620;51.704;7.822;2022-10-12T07:45:48;16.70;99.90
46416;DHT22;32620;51.704;7.822;2022-10-12T07:48:13;16.70;99.90
46416;DHT22;32620;51.704;7.822;2022-10-12T07:50:39;17.40;99.90
46416;DHT22;32620;51.704;7.822;2022-10-12T07:53:04;16.80;99.90
46416;DHT22;32620;51.704;7.822;2022-10-12T07:55:30;16.30;99.90
46416;DHT22;32620;51.704;7.822;2022-10-12T07:57:58;16.30;99.90
46416;DHT22;32620;51.704;7.822;2022-10-12T08:00:23;15.60;99.90
46416;DHT22;32620;51.704;7.822;2022-10-12T08:02:49;14.70;99.90
46416;DHT22;32620;51.704;7.822;2022-10-12T08:05:14;14.20;99.90
46416;DHT22;32620;51.704;7.822;2022-10-12T08:07:40;13.70;99.90
46416;DHT22;32620;51.704;7.822;2022-10-12T08:10:05;13.00;99.90
46416;DHT22;32620;51.704;7.822;2022-10-12T08:12:31;13.20;99.90
46416;DHT22;32620;51.704;7.822;2022-10-12T08:14:56;13.00;99.90
46416;DHT22;32620;51.704;7.822;2022-10-12T08:17:22;13.90;99.90
46416;DHT22;32620;51.704;7.822;2022-10-12T08:19:47;14.80;99.90
46416;DHT22;32620;51.704;7.822;2022-10-12T08:22:13;15.60;99.90
46416;DHT22;32620;51.704;7.822;2022-10-12T08:24:38;15.70;99.90
46416;DHT22;32620;51.704;7.822;2022-10-12T08:27:04;15.40;99.90
46416;DHT22;32620;51.704;7.822;2022-10-12T08:29:29;16.60;99.90
46416;DHT22;32620;51.704;7.822;2022-10-12T08:31:55;16.80;99.90
46416;DHT22;32620;51.704;7.822;2022-10-12T08:34:20;15.30;99.90
46416;DHT22;32620;51.704;7.822;2022-10-12T08:36:46;14.70;99.90
46416;DHT22;32620;51.704;7.822;2022-10-12T08:39:12;15.50;99.90
46416;DHT22;32620;51.704;7.822;2022-10-12T08:47:10;16.60;99.90
46416;DHT22;32620;51.704;7.822;2022-10-12T08:49:36;16.20;99.90
46416;DHT22;32620;51.704;7.822;2022-10-12T08:52:05;16.40;99.90
46416;DHT22;32620;51.704;7.822;2022-10-12T08:54:40;16.20;99.90
46416;DHT22;32620;51.704;7.822;2022-10-12T08:57:09;17.00;99.90
46416;DHT22;32620;51.704;7.822;2022-10-12T08:59:37;17.00;99.90
46416;DHT22;32620;51.704;7.822;2022-10-12T09:04:52;17.50;99.90
46416;DHT22;32620;51.704;7.822;2022-10-12T09:07:28;17.60;99.90
46416;DHT22;32620;51.704;7.822;2022-10-12T09:09:59;17.50;99.90
46416;DHT22;32620;51.704;7.822;2022-10-12T09:15:04;17.30;99.90
46416;DHT22;32620;51.704;7.822;2022-10-12T09:17:34;17.40;99.90
46416;DHT22;32620;51.704;7.822;2022-10-12T09:20:04;17.70;99.90
46416;DHT22;32620;51.704;7.822;2022-10-12T09:22:30;17.60;99.90
46416;DHT22;32620;51.704;7.822;2022-10-12T09:24:58;17.20;99.90
46416;DHT22;32620;51.704;7.822;2022-10-12T09:27:24;16.60;99.90
46416;DHT22;32620;51.704;7.822;2022-10-12T09:29:54;16.90;99.90
46416;DHT22;32620;51.704;7.822;2022-10-12T09:32:29;16.70;99.90
46416;DHT22;32620;51.704;7.822;2022-10-12T09:34:59;17.30;99.90
46416;DHT22;32620;51.704;7.822;2022-10-12T09:37:26;18.00;99.90
46416;DHT22;32620;51.704;7.822;2022-10-12T09:39:53;18.40;99.90
46416;DHT22;32620;51.704;7.822;2022-10-12T09:42:19;18.70;99.90
46416;DHT22;32620;51.704;7.822;2022-10-12T09:44:46;18.60;99.90
46416;DHT22;32620;51.704;7.822;2022-10-12T09:49:58;18.60;99.30
46416;DHT22;32620;51.704;7.822;2022-10-12T09:52:27;18.30;99.90
46416;DHT22;32620;51.704;7.822;2022-10-12T09:54:54;18.50;99.90
46416;DHT22;32620;51.704;7.822;2022-10-12T09:57:22;19.40;99.90
46416;DHT22;32620;51.704;7.822;2022-10-12T09:59:48;20.00;99.20
46416;DHT22;32620;51.704;7.822;2022-10-12T10:02:16;20.40;96.80
46416;DHT22;32620;51.704;7.822;2022-10-12T10:04:42;20.00;97.90
46416;DHT22;32620;51.704;7.822;2022-10-12T10:07:39;19.60;97.20
46416;DHT22;32620;51.704;7.822;2022-10-12T10:10:05;19.50;98.40
46416;DHT22;32620;51.704;7.822;2022-10-12T10:12:53;19.40;98.10
46416;DHT22;32620;51.704;7.822;2022-10-12T10:15:23;19.30;97.50
46416;DHT22;32620;51.704;7.822;2022-10-12T10:17:50;19.50;97.60
46416;DHT22;32620;51.704;7.822;2022-10-12T10:20:21;19.30;98.30
46416;DHT22;32620;51.704;7.822;2022-10-12T10:22:48;19.50;98.00
46416;DHT22;32620;51.704;7.822;2022-10-12T10:25:21;20.30;97.10
46416;DHT22;32620;51.704;7.822;2022-10-12T10:27:47;19.80;96.70
46416;DHT22;32620;51.704;7.822;2022-10-12T10:32:44;18.10;99.20
46416;DHT22;32620;51.704;7.822;2022-10-12T10:37:49;18.50;99.90
46416;DHT22;32620;51.704;7.822;2022-10-12T10:40:31;18.90;99.30
46416;DHT22;32620;51.704;7.822;2022-10-12T10:43:01;19.40;98.00
46416;DHT22;32620;51.704;7.822;2022-10-12T10:45:30;18.70;97.60
46416;DHT22;32620;51.704;7.822;2022-10-12T10:47:56;17.80;98.60
46416;DHT22;32620;51.704;7.822;2022-10-12T10:50:28;17.60;99.90
46416;DHT22;32620;51.704;7.822;2022-10-12T10:52:56;17.50;99.90
46416;DHT22;32620;51.704;7.822;2022-10-12T10:55:25;18.00;99.40
46416;DHT22;32620;51.704;7.822;2022-10-12T10:58:25;19.40;97.00
46416;DHT22;32620;51.704;7.822;2022-10-12T11:00:46;19.60;96.20
46416;DHT22;32620;51.704;7.822;2022-10-12T11:03:13;19.70;96.90
46416;DHT22;32620;51.704;7.822;2022-10-12T11:05:43;19.20;96.20
46416;DHT22;32620;51.704;7.822;2022-10-12T11:08:11;19.40;97.10
46416;DHT22;32620;51.704;7.822;2022-10-12T11:10:41;18.90;97.40
46416;DHT22;32620;51.704;7.822;2022-10-12T11:13:17;19.30;97.70
46416;DHT22;32620;51.704;7.822;2022-10-12T11:15:45;19.00;97.20
46416;DHT22;32620;51.704;7.822;2022-10-12T11:18:14;18.40;98.60
46416;DHT22;32620;51.704;7.822;2022-10-12T11:20:44;18.30;98.00
46416;DHT22;32620;51.704;7.822;2022-10-12T11:23:16;18.30;97.60
46416;DHT22;32620;51.704;7.822;2022-10-12T11:25:48;18.20;97.60
46416;DHT22;32620;51.704;7.822;2022-10-12T11:28:17;18.10;98.00
46416;DHT22;32620;51.704;7.822;2022-10-12T11:30:44;18.30;98.60
46416;DHT22;32620;51.704;7.822;2022-10-12T11:33:12;18.40;97.20
46416;DHT22;32620;51.704;7.822;2022-10-12T11:35:40;17.90;95.90
46416;DHT22;32620;51.704;7.822;2022-10-12T11:38:07;18.00;96.80
46416;DHT22;32620;51.704;7.822;2022-10-12T11:40:37;18.00;95.50
46416;DHT22;32620;51.704;7.822;2022-10-12T11:43:04;17.80;96.50
46416;DHT22;32620;51.704;7.822;2022-10-12T11:45:33;17.70;96.50
46416;DHT22;32620;51.704;7.822;2022-10-12T11:48:03;17.60;96.50
46416;DHT22;32620;51.704;7.822;2022-10-12T11:50:34;17.40;96.80
46416;DHT22;32620;51.704;7.822;2022-10-12T11:53:01;17.40;96.90
46416;DHT22;32620;51.704;7.822;2022-10-12T11:58:18;17.90;97.90
46416;DHT22;32620;51.704;7.822;2022-10-12T12:00:56;17.70;98.50
46416;DHT22;32620;51.704;7.822;2022-10-12T12:03:33;17.60;98.00
46416;DHT22;32620;51.704;7.822;2022-10-12T12:11:19;17.30;99.10
46416;DHT22;32620;51.704;7.822;2022-10-12T12:13:45;17.40;99.40
46416;DHT22;32620;51.704;7.822;2022-10-12T12:24:19;17.70;98.60
46416;DHT22;32620;51.704;7.822;2022-10-12T12:26:47;17.30;99.90
46416;DHT22;32620;51.704;7.822;2022-10-12T12:29:16;17.60;99.10
46416;DHT22;32620;51.704;7.822;2022-10-12T12:31:52;17.70;99.00
46416;DHT22;32620;51.704;7.822;2022-10-12T12:34:20;17.40;99.80
46416;DHT22;32620;51.704;7.822;2022-10-12T12:36:46;17.30;99.90
46416;DHT22;32620;51.704;7.822;2022-10-12T12:39:22;17.10;99.90
46416;DHT22;32620;51.704;7.822;2022-10-12T12:41:50;17.10;99.90
46416;DHT22;32620;51.704;7.822;2022-10-12T12:44:48;17.20;99.90
46416;DHT22;32620;51.704;7.822;2022-10-12T12:58:00;17.30;99.90
46416;DHT22;32620;51.704;7.822;2022-10-12T13:00:37;17.50;99.90
46416;DHT22;32620;51.704;7.822;2022-10-12T13:06:01;17.50;99.90
46416;DHT22;32620;51.704;7.822;2022-10-12T13:08:37;17.40;99.90
46416;DHT22;32620;51.704;7.822;2022-10-12T13:11:42;17.40;99.90
46416;DHT22;32620;51.704;7.822;2022-10-12T13:19:23;17.60;99.90
46416;DHT22;32620;51.704;7.822;2022-10-12T13:21:50;17.70;99.90
46416;DHT22;32620;51.704;7.822;2022-10-12T13:24:19;17.70;99.90
46416;DHT22;32620;51.704;7.822;2022-10-12T13:26:47;17.70;99.90
46416;DHT22;32620;51.704;7.822;2022-10-12T13:29:47;17.60;99.90
46416;DHT22;32620;51.704;7.822;2022-10-12T13:31:59;17.40;99.90
46416;DHT22;32620;51.704;7.822;2022-10-12T13:34:35;17.30;99.90
46416;DHT22;32620;51.704;7.822;2022-10-12T13:37:04;17.30;99.90
46416;DHT22;32620;51.704;7.822;2022-10-12T13:39:36;17.10;99.90
46416;DHT22;32620;51.704;7.822;2022-10-12T13:42:02;17.10;99.90
46416;DHT22;32620;51.704;7.822;2022-10-12T13:44:28;17.00;99.90
46416;DHT22;32620;51.704;7.822;2022-10-12T13:46:56;16.80;99.90
46416;DHT22;32620;51.704;7.822;2022-10-12T13:49:25;16.70;99.90
46416;DHT22;32620;51.704;7.822;2022-10-12T13:51:54;16.70;99.90
46416;DHT22;32620;51.704;7.822;2022-10-12T13:54:21;16.70;99.90
46416;DHT22;32620;51.704;7.822;2022-10-12T13:56:47;16.70;99.90
46416;DHT22;32620;51.704;7.822;2022-10-12T13:59:15;16.80;99.90
46416;DHT22;32620;51.704;7.822;2022-10-12T14:01:46;16.90;99.90
46416;DHT22;32620;51.704;7.822;2022-10-12T14:04:12;16.90;99.90
46416;DHT22;32620;51.704;7.822;2022-10-12T14:06:37;16.90;99.90
46416;DHT22;32620;51.704;7.822;2022-10-12T14:09:06;16.80;99.90
46416;DHT22;32620;51.704;7.822;2022-10-12T14:11:32;16.80;99.90
46416;DHT22;32620;51.704;7.822;2022-10-12T14:13:58;16.80;99.90
46416;DHT22;32620;51.704;7.822;2022-10-12T14:16:24;17.00;99.90
46416;DHT22;32620;51.704;7.822;2022-10-12T14:18:49;17.00;99.90
46416;DHT22;32620;51.704;7.822;2022-10-12T14:21:19;17.00;99.90
46416;DHT22;32620;51.704;7.822;2022-10-12T14:23:49;17.00;99.90
46416;DHT22;32620;51.704;7.822;2022-10-12T14:26:37;17.10;99.90
46416;DHT22;32620;51.704;7.822;2022-10-12T14:29:23;17.10;99.90
46416;DHT22;32620;51.704;7.822;2022-10-12T14:31:47;16.80;99.90
46416;DHT22;32620;51.704;7.822;2022-10-12T14:34:21;16.70;99.90
46416;DHT22;32620;51.704;7.822;2022-10-12T14:36:57;16.50;99.90
46416;DHT22;32620;51.704;7.822;2022-10-12T14:39:23;16.50;99.90
46416;DHT22;32620;51.704;7.822;2022-10-12T14:41:50;16.40;99.90
46416;DHT22;32620;51.704;7.822;2022-10-12T14:44:17;16.40;99.90
46416;DHT22;32620;51.704;7.822;2022-10-12T14:47:38;16.40;99.90
46416;DHT22;32620;51.704;7.822;2022-10-12T14:49:33;16.40;99.90
46416;DHT22;32620;51.704;7.822;2022-10-12T14:52:00;16.50;99.90
46416;DHT22;32620;51.704;7.822;2022-10-12T14:54:26;16.50;99.90
46416;DHT22;32620;51.704;7.822;2022-10-12T14:56:51;16.60;99.90
46416;DHT22;32620;51.704;7.822;2022-10-12T14:59:16;16.50;99.90
46416;DHT22;32620;51.704;7.822;2022-10-12T15:01:42;16.40;99.90
46416;DHT22;32620;51.704;7.822;2022-10-12T15:04:10;16.40;99.90
46416;DHT22;32620;51.704;7.822;2022-10-12T15:06:36;16.20;99.90
46416;DHT22;32620;51.704;7.822;2022-10-12T15:09:01;16.30;99.90
46416;DHT22;32620;51.704;7.822;2022-10-12T15:11:27;16.20;99.90
46416;DHT22;32620;51.704;7.822;2022-10-12T15:13:52;16.20;99.90
46416;DHT22;32620;51.704;7.822;2022-10-12T15:16:20;16.20;99.90
46416;DHT22;32620;51.704;7.822;2022-10-12T15:18:46;16.10;99.90
46416;DHT22;32620;51.704;7.822;2022-10-12T15:21:14;16.10;99.90
46416;DHT22;32620;51.704;7.822;2022-10-12T15:23:40;16.10;99.90
46416;DHT22;32620;51.704;7.822;2022-10-12T15:26:08;16.00;99.90
46416;DHT22;32620;51.704;7.822;2022-10-12T15:28:36;16.10;99.90
46416;DHT22;32620;51.704;7.822;2022-10-12T15:31:01;16.00;99.90
46416;DHT22;32620;51.704;7.822;2022-10-12T15:33:27;15.90;99.90
46416;DHT22;32620;51.704;7.822;2022-10-12T15:35:53;15.80;99.90
46416;DHT22;32620;51.704;7.822;2022-10-12T15:38:18;15.80;99.90
46416;DHT22;32620;51.704;7.822;2022-10-12T15:40:43;15.80;99.90
46416;DHT22;32620;51.704;7.822;2022-10-12T15:43:10;15.70;99.90
46416;DHT22;32620;51.704;7.822;2022-10-12T15:45:37;15.70;99.90
46416;DHT22;32620;51.704;7.822;2022-10-12T15:48:03;15.70;99.90
46416;DHT22;32620;51.704;7.822;2022-10-12T15:50:35;15.60;99.90
46416;DHT22;32620;51.704;7.822;2022-10-12T15:53:01;15.50;99.90
46416;DHT22;32620;51.704;7.822;2022-10-12T15:55:27;15.40;99.90
46416;DHT22;32620;51.704;7.822;2022-10-12T15:57:54;15.30;99.90
46416;DHT22;32620;51.704;7.822;2022-10-12T16:00:20;15.20;99.90
46416;DHT22;32620;51.704;7.822;2022-10-12T16:02:46;15.00;99.90
46416;DHT22;32620;51.704;7.822;2022-10-12T16:05:15;14.80;99.90
46416;DHT22;32620;51.704;7.822;2022-10-12T16:07:41;14.60;99.90
46416;DHT22;32620;51.704;7.822;2022-10-12T16:10:06;14.30;99.90
46416;DHT22;32620;51.704;7.822;2022-10-12T16:12:34;14.20;99.90
46416;DHT22;32620;51.704;7.822;2022-10-12T16:14:59;14.00;99.90
46416;DHT22;32620;51.704;7.822;2022-10-12T16:17:25;13.90;99.90
46416;DHT22;32620;51.704;7.822;2022-10-12T16:19:50;13.80;99.90
46416;DHT22;32620;51.704;7.822;2022-10-12T16:22:17;13.70;99.90
46416;DHT22;32620;51.704;7.822;2022-10-12T16:24:42;13.60;99.90
46416;DHT22;32620;51.704;7.822;2022-10-12T16:27:08;13.50;99.90
46416;DHT22;32620;51.704;7.822;2022-10-12T16:29:33;13.40;99.90
46416;DHT22;32620;51.704;7.822;2022-10-12T16:31:58;13.30;99.90
46416;DHT22;32620;51.704;7.822;2022-10-12T16:34:24;13.10;99.90
46416;DHT22;32620;51.704;7.822;2022-10-12T16:36:51;13.00;99.90
46416;DHT22;32620;51.704;7.822;2022-10-12T16:39:16;12.90;99.90
46416;DHT22;32620;51.704;7.822;2022-10-12T16:41:42;12.80;99.90